sensor_id;sensor_type;location;lat;lon;timestamp;P1;durP1;ratioP1;P2;durP2;ratioP2
48727;SDS011;34527;45.618;5.130;2024-01-16T00:00:14;56.10;;;28.75;;
48727;SDS011;34527;45.618;5.130;2024-01-16T00:02:40;51.60;;;28.38;;
48727;SDS011;34527;45.618;5.130;2024-01-16T00:05:06;53.58;;;30.30;;
48727;SDS011;34527;45.618;5.130;2024-01-16T00:07:31;58.50;;;29.23;;
48727;SDS011;34527;45.618;5.130;2024-01-16T00:09:59;48.83;;;28.08;;
48727;SDS011;34527;45.618;5.130;2024-01-16T00:12:25;55.30;;;28.85;;
48727;SDS011;34527;45.618;5.130;2024-01-16T00:14:50;51.17;;;28.55;;
48727;SDS011;34527;45.618;5.130;2024-01-16T00:17:16;52.22;;;27.58;;
48727;SDS011;34527;45.618;5.130;2024-01-16T00:19:41;53.13;;;27.08;;
48727;SDS011;34527;45.618;5.130;2024-01-16T00:22:07;57.90;;;28.88;;
48727;SDS011;34527;45.618;5.130;2024-01-16T00:24:33;51.45;;;28.65;;
48727;SDS011;34527;45.618;5.130;2024-01-16T00:26:59;50.47;;;27.77;;
48727;SDS011;34527;45.618;5.130;2024-01-16T00:29:24;51.03;;;27.63;;
48727;SDS011;34527;45.618;5.130;2024-01-16T00:31:50;50.97;;;27.52;;
48727;SDS011;34527;45.618;5.130;2024-01-16T00:34:15;49.92;;;27.55;;
48727;SDS011;34527;45.618;5.130;2024-01-16T00:36:41;47.80;;;26.30;;
48727;SDS011;34527;45.618;5.130;2024-01-16T00:39:07;45.42;;;26.15;;
48727;SDS011;34527;45.618;5.130;2024-01-16T00:41:33;53.03;;;27.38;;
48727;SDS011;34527;45.618;5.130;2024-01-16T00:43:58;54.08;;;28.13;;
48727;SDS011;34527;45.618;5.130;2024-01-16T00:46:24;47.55;;;26.80;;
48727;SDS011;34527;45.618;5.130;2024-01-16T00:48:49;51.45;;;26.83;;
48727;SDS011;34527;45.618;5.130;2024-01-16T00:51:15;52.67;;;28.30;;
48727;SDS011;34527;45.618;5.130;2024-01-16T00:53:41;51.40;;;27.25;;
48727;SDS011;34527;45.618;5.130;2024-01-16T00:56:07;59.90;;;28.15;;
48727;SDS011;34527;45.618;5.130;2024-01-16T00:58:33;55.08;;;29.80;;
48727;SDS011;34527;45.618;5.130;2024-01-16T01:00:58;55.13;;;28.75;;
48727;SDS011;34527;45.618;5.130;2024-01-16T01:03:24;51.75;;;28.15;;
48727;SDS011;34527;45.618;5.130;2024-01-16T01:05:50;52.75;;;27.52;;
48727;SDS011;34527;45.618;5.130;2024-01-16T01:08:16;51.72;;;27.85;;
48727;SDS011;34527;45.618;5.130;2024-01-16T01:10:41;52.13;;;28.13;;
48727;SDS011;34527;45.618;5.130;2024-01-16T01:13:07;52.35;;;28.15;;
48727;SDS011;34527;45.618;5.130;2024-01-16T01:15:33;54.25;;;28.70;;
48727;SDS011;34527;45.618;5.130;2024-01-16T01:17:58;50.33;;;27.85;;
48727;SDS011;34527;45.618;5.130;2024-01-16T01:20:24;49.70;;;28.92;;
48727;SDS011;34527;45.618;5.130;2024-01-16T01:22:50;51.08;;;28.08;;
48727;SDS011;34527;45.618;5.130;2024-01-16T01:25:16;54.97;;;28.58;;
48727;SDS011;34527;45.618;5.130;2024-01-16T01:27:41;49.92;;;27.50;;
48727;SDS011;34527;45.618;5.130;2024-01-16T01:30:07;52.13;;;28.10;;
48727;SDS011;34527;45.618;5.130;2024-01-16T01:32:36;49.03;;;27.85;;
48727;SDS011;34527;45.618;5.130;2024-01-16T01:35:02;54.30;;;27.13;;
48727;SDS011;34527;45.618;5.130;2024-01-16T01:37:28;53.92;;;27.27;;
48727;SDS011;34527;45.618;5.130;2024-01-16T01:39:54;55.50;;;28.48;;
48727;SDS011;34527;45.618;5.130;2024-01-16T01:42:32;51.15;;;27.23;;
48727;SDS011;34527;45.618;5.130;2024-01-16T01:44:57;53.72;;;28.52;;
48727;SDS011;34527;45.618;5.130;2024-01-16T01:47:23;59.03;;;28.30;;
48727;SDS011;34527;45.618;5.130;2024-01-16T01:49:49;58.03;;;29.23;;
48727;SDS011;34527;45.618;5.130;2024-01-16T01:52:16;61.97;;;28.80;;
48727;SDS011;34527;45.618;5.130;2024-01-16T01:54:42;47.85;;;27.15;;
48727;SDS011;34527;45.618;5.130;2024-01-16T01:57:09;49.15;;;26.58;;
48727;SDS011;34527;45.618;5.130;2024-01-16T01:59:35;53.60;;;28.17;;
48727;SDS011;34527;45.618;5.130;2024-01-16T02:02:01;53.08;;;26.85;;
48727;SDS011;34527;45.618;5.130;2024-01-16T02:04:29;56.42;;;27.48;;
48727;SDS011;34527;45.618;5.130;2024-01-16T02:06:56;49.17;;;25.33;;
48727;SDS011;34527;45.618;5.130;2024-01-16T02:09:23;49.97;;;25.92;;
48727;SDS011;34527;45.618;5.130;2024-01-16T02:11:50;48.92;;;25.35;;
48727;SDS011;34527;45.618;5.130;2024-01-16T02:14:16;52.63;;;27.10;;
48727;SDS011;34527;45.618;5.130;2024-01-16T02:16:41;49.97;;;25.08;;
48727;SDS011;34527;45.618;5.130;2024-01-16T02:19:09;55.38;;;27.75;;
48727;SDS011;34527;45.618;5.130;2024-01-16T02:21:42;51.97;;;25.08;;
48727;SDS011;34527;45.618;5.130;2024-01-16T02:24:12;49.00;;;26.67;;
48727;SDS011;34527;45.618;5.130;2024-01-16T02:26:38;53.53;;;27.05;;
48727;SDS011;34527;45.618;5.130;2024-01-16T02:29:04;55.38;;;25.50;;
48727;SDS011;34527;45.618;5.130;2024-01-16T02:31:30;54.08;;;26.90;;
48727;SDS011;34527;45.618;5.130;2024-01-16T02:33:56;51.63;;;26.40;;
48727;SDS011;34527;45.618;5.130;2024-01-16T02:36:22;50.90;;;26.77;;
48727;SDS011;34527;45.618;5.130;2024-01-16T02:38:48;52.28;;;26.67;;
48727;SDS011;34527;45.618;5.130;2024-01-16T02:41:14;55.72;;;27.10;;
48727;SDS011;34527;45.618;5.130;2024-01-16T02:43:41;55.25;;;28.20;;
48727;SDS011;34527;45.618;5.130;2024-01-16T02:46:07;52.25;;;27.13;;
48727;SDS011;34527;45.618;5.130;2024-01-16T02:48:33;57.30;;;28.23;;
48727;SDS011;34527;45.618;5.130;2024-01-16T02:50:59;54.70;;;27.08;;
48727;SDS011;34527;45.618;5.130;2024-01-16T02:53:25;58.13;;;28.65;;
48727;SDS011;34527;45.618;5.130;2024-01-16T02:55:51;58.03;;;28.98;;
48727;SDS011;34527;45.618;5.130;2024-01-16T02:58:18;54.90;;;28.65;;
48727;SDS011;34527;45.618;5.130;2024-01-16T03:00:43;53.33;;;27.48;;
48727;SDS011;34527;45.618;5.130;2024-01-16T03:03:09;55.88;;;27.60;;
48727;SDS011;34527;45.618;5.130;2024-01-16T03:05:36;47.15;;;26.52;;
48727;SDS011;34527;45.618;5.130;2024-01-16T03:08:01;54.53;;;27.77;;
48727;SDS011;34527;45.618;5.130;2024-01-16T03:10:27;55.55;;;29.02;;
48727;SDS011;34527;45.618;5.130;2024-01-16T03:12:52;55.10;;;28.13;;
48727;SDS011;34527;45.618;5.130;2024-01-16T03:15:18;53.60;;;29.33;;
48727;SDS011;34527;45.618;5.130;2024-01-16T03:17:44;54.08;;;28.27;;
48727;SDS011;34527;45.618;5.130;2024-01-16T03:20:09;54.10;;;27.50;;
48727;SDS011;34527;45.618;5.130;2024-01-16T03:22:35;55.67;;;27.50;;
48727;SDS011;34527;45.618;5.130;2024-01-16T03:25:01;60.90;;;28.90;;
48727;SDS011;34527;45.618;5.130;2024-01-16T03:27:27;52.63;;;27.40;;
48727;SDS011;34527;45.618;5.130;2024-01-16T03:29:53;49.83;;;25.80;;
48727;SDS011;34527;45.618;5.130;2024-01-16T03:32:18;51.20;;;26.45;;
48727;SDS011;34527;45.618;5.130;2024-01-16T03:34:44;59.88;;;27.40;;
48727;SDS011;34527;45.618;5.130;2024-01-16T03:37:10;58.38;;;27.67;;
48727;SDS011;34527;45.618;5.130;2024-01-16T03:39:35;55.40;;;28.75;;
48727;SDS011;34527;45.618;5.130;2024-01-16T03:42:01;53.65;;;27.85;;
48727;SDS011;34527;45.618;5.130;2024-01-16T03:44:26;51.38;;;26.45;;
48727;SDS011;34527;45.618;5.130;2024-01-16T03:46:52;50.88;;;26.20;;
48727;SDS011;34527;45.618;5.130;2024-01-16T03:49:18;57.30;;;27.25;;
48727;SDS011;34527;45.618;5.130;2024-01-16T03:51:43;55.17;;;26.48;;
48727;SDS011;34527;45.618;5.130;2024-01-16T03:54:11;56.08;;;28.33;;
48727;SDS011;34527;45.618;5.130;2024-01-16T03:56:38;56.30;;;27.35;;
48727;SDS011;34527;45.618;5.130;2024-01-16T03:59:04;56.40;;;27.52;;
48727;SDS011;34527;45.618;5.130;2024-01-16T04:01:33;51.83;;;28.00;;
48727;SDS011;34527;45.618;5.130;2024-01-16T04:04:01;58.00;;;28.80;;
48727;SDS011;34527;45.618;5.130;2024-01-16T04:06:27;56.03;;;29.25;;
48727;SDS011;34527;45.618;5.130;2024-01-16T04:08:54;63.78;;;30.02;;
48727;SDS011;34527;45.618;5.130;2024-01-16T04:11:19;60.58;;;29.80;;
48727;SDS011;34527;45.618;5.130;2024-01-16T04:13:45;66.65;;;29.67;;
48727;SDS011;34527;45.618;5.130;2024-01-16T04:16:12;63.17;;;30.10;;
48727;SDS011;34527;45.618;5.130;2024-01-16T04:18:38;60.45;;;29.83;;
48727;SDS011;34527;45.618;5.130;2024-01-16T04:21:08;62.25;;;28.75;;
48727;SDS011;34527;45.618;5.130;2024-01-16T04:23:34;62.85;;;30.00;;
48727;SDS011;34527;45.618;5.130;2024-01-16T04:25:59;63.05;;;30.10;;
48727;SDS011;34527;45.618;5.130;2024-01-16T04:28:25;61.97;;;30.70;;
48727;SDS011;34527;45.618;5.130;2024-01-16T04:30:51;61.28;;;29.77;;
48727;SDS011;34527;45.618;5.130;2024-01-16T04:33:17;65.88;;;31.02;;
48727;SDS011;34527;45.618;5.130;2024-01-16T04:35:42;60.90;;;30.13;;
48727;SDS011;34527;45.618;5.130;2024-01-16T04:38:08;54.45;;;27.25;;
48727;SDS011;34527;45.618;5.130;2024-01-16T04:40:34;53.67;;;25.80;;
48727;SDS011;34527;45.618;5.130;2024-01-16T04:43:00;51.83;;;26.35;;
48727;SDS011;34527;45.618;5.130;2024-01-16T04:45:25;50.70;;;27.50;;
48727;SDS011;34527;45.618;5.130;2024-01-16T04:47:51;54.65;;;26.92;;
48727;SDS011;34527;45.618;5.130;2024-01-16T04:50:17;51.60;;;26.73;;
48727;SDS011;34527;45.618;5.130;2024-01-16T04:52:43;51.75;;;26.60;;
48727;SDS011;34527;45.618;5.130;2024-01-16T04:55:09;56.30;;;26.50;;
48727;SDS011;34527;45.618;5.130;2024-01-16T04:57:35;60.00;;;28.20;;
48727;SDS011;34527;45.618;5.130;2024-01-16T05:00:01;55.70;;;26.40;;
48727;SDS011;34527;45.618;5.130;2024-01-16T05:02:31;53.92;;;26.27;;
48727;SDS011;34527;45.618;5.130;2024-01-16T05:05:00;53.28;;;26.33;;
48727;SDS011;34527;45.618;5.130;2024-01-16T05:07:25;57.10;;;26.15;;
48727;SDS011;34527;45.618;5.130;2024-01-16T05:09:51;48.85;;;25.40;;
48727;SDS011;34527;45.618;5.130;2024-01-16T05:12:17;59.05;;;25.48;;
48727;SDS011;34527;45.618;5.130;2024-01-16T05:14:43;62.30;;;26.60;;
48727;SDS011;34527;45.618;5.130;2024-01-16T05:17:08;56.10;;;25.17;;
48727;SDS011;34527;45.618;5.130;2024-01-16T05:19:34;51.10;;;25.17;;
48727;SDS011;34527;45.618;5.130;2024-01-16T05:21:59;57.00;;;25.70;;
48727;SDS011;34527;45.618;5.130;2024-01-16T05:24:25;57.53;;;26.98;;
48727;SDS011;34527;45.618;5.130;2024-01-16T05:26:51;56.17;;;25.95;;
48727;SDS011;34527;45.618;5.130;2024-01-16T05:29:17;57.10;;;26.77;;
48727;SDS011;34527;45.618;5.130;2024-01-16T05:31:43;57.67;;;27.77;;
48727;SDS011;34527;45.618;5.130;2024-01-16T05:34:09;53.03;;;25.85;;
48727;SDS011;34527;45.618;5.130;2024-01-16T05:36:35;59.60;;;27.80;;
48727;SDS011;34527;45.618;5.130;2024-01-16T05:39:01;57.60;;;28.15;;
48727;SDS011;34527;45.618;5.130;2024-01-16T05:41:27;67.53;;;28.98;;
48727;SDS011;34527;45.618;5.130;2024-01-16T05:43:57;62.75;;;28.02;;
48727;SDS011;34527;45.618;5.130;2024-01-16T05:46:22;57.00;;;27.48;;
48727;SDS011;34527;45.618;5.130;2024-01-16T05:48:48;61.47;;;27.73;;
48727;SDS011;34527;45.618;5.130;2024-01-16T05:51:13;56.75;;;26.85;;
48727;SDS011;34527;45.618;5.130;2024-01-16T05:53:39;57.53;;;27.30;;
48727;SDS011;34527;45.618;5.130;2024-01-16T05:56:04;54.83;;;26.08;;
48727;SDS011;34527;45.618;5.130;2024-01-16T05:58:30;49.63;;;23.85;;
48727;SDS011;34527;45.618;5.130;2024-01-16T06:01:00;45.58;;;22.55;;
48727;SDS011;34527;45.618;5.130;2024-01-16T06:03:26;51.28;;;24.08;;
48727;SDS011;34527;45.618;5.130;2024-01-16T06:05:51;45.88;;;23.05;;
48727;SDS011;34527;45.618;5.130;2024-01-16T06:08:17;45.90;;;22.90;;
48727;SDS011;34527;45.618;5.130;2024-01-16T06:10:44;46.30;;;22.95;;
48727;SDS011;34527;45.618;5.130;2024-01-16T06:13:10;50.60;;;23.33;;
48727;SDS011;34527;45.618;5.130;2024-01-16T06:15:36;44.95;;;22.42;;
48727;SDS011;34527;45.618;5.130;2024-01-16T06:18:01;49.95;;;23.58;;
48727;SDS011;34527;45.618;5.130;2024-01-16T06:20:27;48.72;;;23.10;;
48727;SDS011;34527;45.618;5.130;2024-01-16T06:22:54;50.47;;;24.10;;
48727;SDS011;34527;45.618;5.130;2024-01-16T06:25:19;52.22;;;24.70;;
48727;SDS011;34527;45.618;5.130;2024-01-16T06:27:45;52.40;;;24.05;;
48727;SDS011;34527;45.618;5.130;2024-01-16T06:30:11;50.42;;;24.20;;
48727;SDS011;34527;45.618;5.130;2024-01-16T06:32:36;57.28;;;25.70;;
48727;SDS011;34527;45.618;5.130;2024-01-16T06:35:02;57.90;;;25.23;;
48727;SDS011;34527;45.618;5.130;2024-01-16T06:37:28;65.65;;;25.63;;
48727;SDS011;34527;45.618;5.130;2024-01-16T06:39:53;76.40;;;28.23;;
48727;SDS011;34527;45.618;5.130;2024-01-16T06:42:19;63.45;;;27.00;;
48727;SDS011;34527;45.618;5.130;2024-01-16T06:44:44;62.75;;;27.63;;
48727;SDS011;34527;45.618;5.130;2024-01-16T06:47:10;65.28;;;27.08;;
48727;SDS011;34527;45.618;5.130;2024-01-16T06:49:36;56.05;;;26.65;;
48727;SDS011;34527;45.618;5.130;2024-01-16T06:52:01;60.78;;;28.67;;
48727;SDS011;34527;45.618;5.130;2024-01-16T06:54:27;57.88;;;28.23;;
48727;SDS011;34527;45.618;5.130;2024-01-16T06:56:53;61.47;;;27.33;;
48727;SDS011;34527;45.618;5.130;2024-01-16T06:59:18;63.92;;;28.60;;
48727;SDS011;34527;45.618;5.130;2024-01-16T07:01:46;64.63;;;27.20;;
48727;SDS011;34527;45.618;5.130;2024-01-16T07:04:12;60.15;;;26.75;;
48727;SDS011;34527;45.618;5.130;2024-01-16T07:06:39;69.75;;;27.67;;
48727;SDS011;34527;45.618;5.130;2024-01-16T07:09:05;68.95;;;28.45;;
48727;SDS011;34527;45.618;5.130;2024-01-16T07:11:30;64.28;;;27.73;;
48727;SDS011;34527;45.618;5.130;2024-01-16T07:13:56;61.38;;;26.48;;
48727;SDS011;34527;45.618;5.130;2024-01-16T07:16:22;64.28;;;28.75;;
48727;SDS011;34527;45.618;5.130;2024-01-16T07:18:47;67.80;;;27.88;;
48727;SDS011;34527;45.618;5.130;2024-01-16T07:21:19;63.97;;;26.35;;
48727;SDS011;34527;45.618;5.130;2024-01-16T07:23:46;70.85;;;26.13;;
48727;SDS011;34527;45.618;5.130;2024-01-16T07:26:12;77.75;;;27.63;;
48727;SDS011;34527;45.618;5.130;2024-01-16T07:28:38;58.65;;;27.38;;
48727;SDS011;34527;45.618;5.130;2024-01-16T07:31:03;65.05;;;27.80;;
48727;SDS011;34527;45.618;5.130;2024-01-16T07:33:30;60.25;;;25.70;;
48727;SDS011;34527;45.618;5.130;2024-01-16T07:35:56;69.13;;;27.10;;
48727;SDS011;34527;45.618;5.130;2024-01-16T07:38:21;69.72;;;28.50;;
48727;SDS011;34527;45.618;5.130;2024-01-16T07:40:47;56.33;;;26.58;;
48727;SDS011;34527;45.618;5.130;2024-01-16T07:43:13;62.22;;;28.13;;
48727;SDS011;34527;45.618;5.130;2024-01-16T07:45:38;70.45;;;27.17;;
48727;SDS011;34527;45.618;5.130;2024-01-16T07:48:04;58.95;;;24.75;;
48727;SDS011;34527;45.618;5.130;2024-01-16T07:50:29;56.15;;;26.35;;
48727;SDS011;34527;45.618;5.130;2024-01-16T07:52:55;67.90;;;29.52;;
48727;SDS011;34527;45.618;5.130;2024-01-16T07:55:21;61.85;;;25.10;;
48727;SDS011;34527;45.618;5.130;2024-01-16T07:57:46;57.63;;;25.33;;
48727;SDS011;34527;45.618;5.130;2024-01-16T08:00:12;62.58;;;26.15;;
48727;SDS011;34527;45.618;5.130;2024-01-16T08:02:38;52.30;;;26.02;;
48727;SDS011;34527;45.618;5.130;2024-01-16T08:05:04;66.40;;;25.42;;
48727;SDS011;34527;45.618;5.130;2024-01-16T08:07:30;52.85;;;25.73;;
48727;SDS011;34527;45.618;5.130;2024-01-16T08:09:56;59.17;;;24.92;;
48727;SDS011;34527;45.618;5.130;2024-01-16T08:12:22;57.65;;;26.10;;
48727;SDS011;34527;45.618;5.130;2024-01-16T08:14:48;57.25;;;25.55;;
48727;SDS011;34527;45.618;5.130;2024-01-16T08:17:13;51.95;;;23.73;;
48727;SDS011;34527;45.618;5.130;2024-01-16T08:19:39;56.00;;;26.40;;
48727;SDS011;34527;45.618;5.130;2024-01-16T08:22:06;56.88;;;26.88;;
48727;SDS011;34527;45.618;5.130;2024-01-16T08:24:31;55.80;;;24.92;;
48727;SDS011;34527;45.618;5.130;2024-01-16T08:26:57;51.60;;;24.20;;
48727;SDS011;34527;45.618;5.130;2024-01-16T08:29:23;53.88;;;23.52;;
48727;SDS011;34527;45.618;5.130;2024-01-16T08:31:49;57.65;;;25.77;;
48727;SDS011;34527;45.618;5.130;2024-01-16T08:34:17;57.83;;;25.13;;
48727;SDS011;34527;45.618;5.130;2024-01-16T08:36:43;54.35;;;24.90;;
48727;SDS011;34527;45.618;5.130;2024-01-16T08:39:09;51.60;;;23.30;;
48727;SDS011;34527;45.618;5.130;2024-01-16T08:41:35;53.72;;;24.50;;
48727;SDS011;34527;45.618;5.130;2024-01-16T08:44:01;48.15;;;23.33;;
48727;SDS011;34527;45.618;5.130;2024-01-16T08:46:26;46.78;;;22.42;;
48727;SDS011;34527;45.618;5.130;2024-01-16T08:48:52;49.35;;;23.17;;
48727;SDS011;34527;45.618;5.130;2024-01-16T08:51:18;48.00;;;23.98;;
48727;SDS011;34527;45.618;5.130;2024-01-16T08:53:43;48.10;;;23.40;;
48727;SDS011;34527;45.618;5.130;2024-01-16T08:56:09;43.65;;;21.38;;
48727;SDS011;34527;45.618;5.130;2024-01-16T08:58:37;45.55;;;21.55;;
48727;SDS011;34527;45.618;5.130;2024-01-16T09:01:03;45.47;;;22.88;;
48727;SDS011;34527;45.618;5.130;2024-01-16T09:03:30;45.60;;;23.50;;
48727;SDS011;34527;45.618;5.130;2024-01-16T09:05:59;48.08;;;22.83;;
48727;SDS011;34527;45.618;5.130;2024-01-16T09:08:25;50.65;;;24.50;;
48727;SDS011;34527;45.618;5.130;2024-01-16T09:10:52;43.58;;;22.02;;
48727;SDS011;34527;45.618;5.130;2024-01-16T09:13:21;44.58;;;22.50;;
48727;SDS011;34527;45.618;5.130;2024-01-16T09:15:48;43.42;;;21.77;;
48727;SDS011;34527;45.618;5.130;2024-01-16T09:18:14;49.40;;;23.92;;
48727;SDS011;34527;45.618;5.130;2024-01-16T09:20:41;54.03;;;24.88;;
48727;SDS011;34527;45.618;5.130;2024-01-16T09:23:07;47.90;;;22.75;;
48727;SDS011;34527;45.618;5.130;2024-01-16T09:25:33;51.72;;;22.92;;
48727;SDS011;34527;45.618;5.130;2024-01-16T09:27:59;48.70;;;22.25;;
48727;SDS011;34527;45.618;5.130;2024-01-16T09:30:25;48.33;;;22.75;;
48727;SDS011;34527;45.618;5.130;2024-01-16T09:32:51;41.95;;;22.05;;
48727;SDS011;34527;45.618;5.130;2024-01-16T09:35:17;42.20;;;21.15;;
48727;SDS011;34527;45.618;5.130;2024-01-16T09:37:42;51.92;;;23.05;;
48727;SDS011;34527;45.618;5.130;2024-01-16T09:40:08;47.83;;;21.95;;
48727;SDS011;34527;45.618;5.130;2024-01-16T09:42:35;45.22;;;22.00;;
48727;SDS011;34527;45.618;5.130;2024-01-16T09:45:01;43.10;;;21.38;;
48727;SDS011;34527;45.618;5.130;2024-01-16T09:47:28;43.95;;;21.80;;
48727;SDS011;34527;45.618;5.130;2024-01-16T09:49:56;45.17;;;21.83;;
48727;SDS011;34527;45.618;5.130;2024-01-16T09:52:24;48.53;;;22.00;;
48727;SDS011;34527;45.618;5.130;2024-01-16T09:54:50;45.80;;;22.48;;
48727;SDS011;34527;45.618;5.130;2024-01-16T09:57:16;48.00;;;23.63;;
48727;SDS011;34527;45.618;5.130;2024-01-16T09:59:47;51.78;;;24.58;;
48727;SDS011;34527;45.618;5.130;2024-01-16T10:02:13;55.00;;;24.90;;
48727;SDS011;34527;45.618;5.130;2024-01-16T10:04:41;57.10;;;24.35;;
48727;SDS011;34527;45.618;5.130;2024-01-16T10:07:07;53.67;;;24.95;;
48727;SDS011;34527;45.618;5.130;2024-01-16T10:09:34;57.40;;;24.33;;
48727;SDS011;34527;45.618;5.130;2024-01-16T10:12:00;55.72;;;25.50;;
48727;SDS011;34527;45.618;5.130;2024-01-16T10:14:27;53.50;;;23.23;;
48727;SDS011;34527;45.618;5.130;2024-01-16T10:16:59;53.35;;;24.45;;
48727;SDS011;34527;45.618;5.130;2024-01-16T10:19:34;53.22;;;22.80;;
48727;SDS011;34527;45.618;5.130;2024-01-16T10:22:01;70.25;;;33.25;;
48727;SDS011;34527;45.618;5.130;2024-01-16T10:24:29;61.72;;;29.33;;
48727;SDS011;34527;45.618;5.130;2024-01-16T10:26:58;59.13;;;27.88;;
48727;SDS011;34527;45.618;5.130;2024-01-16T10:29:25;58.13;;;26.80;;
48727;SDS011;34527;45.618;5.130;2024-01-16T10:31:51;61.05;;;27.08;;
48727;SDS011;34527;45.618;5.130;2024-01-16T10:34:21;54.40;;;24.15;;
48727;SDS011;34527;45.618;5.130;2024-01-16T10:36:48;70.45;;;28.70;;
48727;SDS011;34527;45.618;5.130;2024-01-16T10:39:15;73.25;;;29.02;;
48727;SDS011;34527;45.618;5.130;2024-01-16T10:41:41;66.78;;;27.80;;
48727;SDS011;34527;45.618;5.130;2024-01-16T10:44:07;64.93;;;29.35;;
48727;SDS011;34527;45.618;5.130;2024-01-16T10:46:33;73.68;;;32.17;;
48727;SDS011;34527;45.618;5.130;2024-01-16T10:49:00;67.45;;;28.90;;
48727;SDS011;34527;45.618;5.130;2024-01-16T10:51:27;65.57;;;29.42;;
48727;SDS011;34527;45.618;5.130;2024-01-16T10:53:57;64.07;;;28.08;;
48727;SDS011;34527;45.618;5.130;2024-01-16T10:56:24;67.75;;;28.98;;
48727;SDS011;34527;45.618;5.130;2024-01-16T10:58:57;64.93;;;28.65;;
48727;SDS011;34527;45.618;5.130;2024-01-16T11:01:34;68.68;;;28.55;;
48727;SDS011;34527;45.618;5.130;2024-01-16T11:04:00;69.95;;;28.75;;
48727;SDS011;34527;45.618;5.130;2024-01-16T11:06:27;66.82;;;30.20;;
48727;SDS011;34527;45.618;5.130;2024-01-16T11:08:55;76.47;;;30.27;;
48727;SDS011;34527;45.618;5.130;2024-01-16T11:11:22;76.55;;;30.30;;
48727;SDS011;34527;45.618;5.130;2024-01-16T11:13:50;80.45;;;31.20;;
48727;SDS011;34527;45.618;5.130;2024-01-16T11:16:16;74.35;;;31.48;;
48727;SDS011;34527;45.618;5.130;2024-01-16T11:18:43;69.78;;;30.88;;
48727;SDS011;34527;45.618;5.130;2024-01-16T11:21:10;78.40;;;29.90;;
48727;SDS011;34527;45.618;5.130;2024-01-16T11:23:38;72.88;;;30.02;;
48727;SDS011;34527;45.618;5.130;2024-01-16T11:28:56;77.70;;;31.70;;
48727;SDS011;34527;45.618;5.130;2024-01-16T11:31:31;79.97;;;35.28;;
48727;SDS011;34527;45.618;5.130;2024-01-16T11:33:58;78.45;;;33.78;;
48727;SDS011;34527;45.618;5.130;2024-01-16T11:39:24;90.38;;;34.72;;
48727;SDS011;34527;45.618;5.130;2024-01-16T11:41:57;81.53;;;35.70;;
48727;SDS011;34527;45.618;5.130;2024-01-16T11:44:40;84.07;;;32.88;;
48727;SDS011;34527;45.618;5.130;2024-01-16T11:47:22;77.85;;;34.85;;
48727;SDS011;34527;45.618;5.130;2024-01-16T11:49:50;73.53;;;31.73;;
48727;SDS011;34527;45.618;5.130;2024-01-16T12:00:52;82.07;;;36.92;;
48727;SDS011;34527;45.618;5.130;2024-01-16T12:03:18;89.03;;;36.90;;
48727;SDS011;34527;45.618;5.130;2024-01-16T12:05:59;80.70;;;34.00;;
48727;SDS011;34527;45.618;5.130;2024-01-16T12:08:25;80.80;;;32.80;;
48727;SDS011;34527;45.618;5.130;2024-01-16T12:10:52;78.82;;;33.78;;
48727;SDS011;34527;45.618;5.130;2024-01-16T12:13:17;82.95;;;34.38;;
48727;SDS011;34527;45.618;5.130;2024-01-16T12:15:43;80.03;;;34.78;;
48727;SDS011;34527;45.618;5.130;2024-01-16T12:18:09;75.13;;;33.25;;
48727;SDS011;34527;45.618;5.130;2024-01-16T12:20:35;80.68;;;33.38;;
48727;SDS011;34527;45.618;5.130;2024-01-16T12:23:05;75.10;;;32.85;;
48727;SDS011;34527;45.618;5.130;2024-01-16T12:25:34;82.50;;;35.13;;
48727;SDS011;34527;45.618;5.130;2024-01-16T12:28:02;85.18;;;36.58;;
48727;SDS011;34527;45.618;5.130;2024-01-16T12:30:31;74.53;;;32.15;;
48727;SDS011;34527;45.618;5.130;2024-01-16T12:35:36;74.80;;;33.53;;
48727;SDS011;34527;45.618;5.130;2024-01-16T12:38:03;81.70;;;33.63;;
48727;SDS011;34527;45.618;5.130;2024-01-16T12:40:36;72.88;;;33.22;;
48727;SDS011;34527;45.618;5.130;2024-01-16T12:43:04;78.15;;;32.55;;
48727;SDS011;34527;45.618;5.130;2024-01-16T12:45:31;76.57;;;33.08;;
48727;SDS011;34527;45.618;5.130;2024-01-16T12:47:58;74.97;;;33.47;;
48727;SDS011;34527;45.618;5.130;2024-01-16T12:50:26;76.20;;;34.10;;
48727;SDS011;34527;45.618;5.130;2024-01-16T12:53:06;75.07;;;34.10;;
48727;SDS011;34527;45.618;5.130;2024-01-16T12:55:33;81.68;;;35.55;;
48727;SDS011;34527;45.618;5.130;2024-01-16T13:00:38;76.65;;;33.85;;
48727;SDS011;34527;45.618;5.130;2024-01-16T13:03:06;74.57;;;31.88;;
48727;SDS011;34527;45.618;5.130;2024-01-16T13:05:32;82.22;;;35.55;;
48727;SDS011;34527;45.618;5.130;2024-01-16T13:08:01;77.60;;;34.28;;
48727;SDS011;34527;45.618;5.130;2024-01-16T13:10:31;68.78;;;33.35;;
48727;SDS011;34527;45.618;5.130;2024-01-16T13:18:21;73.72;;;32.28;;
48727;SDS011;34527;45.618;5.130;2024-01-16T13:20:49;74.78;;;33.50;;
48727;SDS011;34527;45.618;5.130;2024-01-16T13:23:15;75.60;;;33.25;;
48727;SDS011;34527;45.618;5.130;2024-01-16T13:25:44;77.25;;;32.70;;
48727;SDS011;34527;45.618;5.130;2024-01-16T13:28:17;76.43;;;35.05;;
48727;SDS011;34527;45.618;5.130;2024-01-16T13:30:45;78.75;;;33.50;;
48727;SDS011;34527;45.618;5.130;2024-01-16T13:33:12;78.90;;;34.97;;
48727;SDS011;34527;45.618;5.130;2024-01-16T13:35:42;76.50;;;33.10;;
48727;SDS011;34527;45.618;5.130;2024-01-16T13:38:09;74.35;;;33.03;;
48727;SDS011;34527;45.618;5.130;2024-01-16T13:40:35;91.38;;;35.75;;
48727;SDS011;34527;45.618;5.130;2024-01-16T13:43:02;73.93;;;34.15;;
48727;SDS011;34527;45.618;5.130;2024-01-16T13:45:29;80.78;;;38.63;;
48727;SDS011;34527;45.618;5.130;2024-01-16T13:47:55;76.70;;;34.90;;
48727;SDS011;34527;45.618;5.130;2024-01-16T13:50:21;74.22;;;34.13;;
48727;SDS011;34527;45.618;5.130;2024-01-16T13:52:47;80.22;;;36.53;;
48727;SDS011;34527;45.618;5.130;2024-01-16T13:55:13;75.47;;;33.83;;
48727;SDS011;34527;45.618;5.130;2024-01-16T13:57:39;81.90;;;36.90;;
48727;SDS011;34527;45.618;5.130;2024-01-16T14:00:06;72.00;;;32.42;;
48727;SDS011;34527;45.618;5.130;2024-01-16T14:02:38;77.07;;;33.22;;
48727;SDS011;34527;45.618;5.130;2024-01-16T14:05:14;76.68;;;33.63;;
48727;SDS011;34527;45.618;5.130;2024-01-16T14:07:42;74.00;;;34.08;;
48727;SDS011;34527;45.618;5.130;2024-01-16T14:10:11;75.43;;;34.10;;
48727;SDS011;34527;45.618;5.130;2024-01-16T14:12:41;72.22;;;33.75;;
48727;SDS011;34527;45.618;5.130;2024-01-16T14:15:08;68.28;;;32.20;;
48727;SDS011;34527;45.618;5.130;2024-01-16T14:17:41;68.95;;;33.05;;
48727;SDS011;34527;45.618;5.130;2024-01-16T14:20:08;72.10;;;32.88;;
48727;SDS011;34527;45.618;5.130;2024-01-16T14:22:36;71.72;;;33.35;;
48727;SDS011;34527;45.618;5.130;2024-01-16T14:25:03;74.50;;;33.63;;
48727;SDS011;34527;45.618;5.130;2024-01-16T14:27:35;69.35;;;32.65;;
48727;SDS011;34527;45.618;5.130;2024-01-16T14:30:12;75.65;;;33.28;;
48727;SDS011;34527;45.618;5.130;2024-01-16T14:32:44;76.90;;;35.10;;
48727;SDS011;34527;45.618;5.130;2024-01-16T14:35:11;76.20;;;35.70;;
48727;SDS011;34527;45.618;5.130;2024-01-16T14:37:38;80.15;;;35.03;;
48727;SDS011;34527;45.618;5.130;2024-01-16T14:40:04;73.07;;;32.25;;
48727;SDS011;34527;45.618;5.130;2024-01-16T14:42:38;70.53;;;33.92;;